createdAt,value
2018-09-24T00:11:56.001Z,2.22
2018-09-24T00:27:00.149Z,3.42
2018-09-24T00:42:03.977Z,3.53
2018-09-24T00:57:07.701Z,3.83
2018-09-24T01:12:11.419Z,4.47
2018-09-24T01:27:15.222Z,2.23
2018-09-24T01:42:18.959Z,4.50
2018-09-24T01:57:22.766Z,3.33
2018-09-24T02:12:26.486Z,2.37
2018-09-24T02:27:30.222Z,2.13
2018-09-24T02:42:33.967Z,2.02
2018-09-24T02:57:37.669Z,2.00
2018-09-24T03:12:45.942Z,1.90
2018-09-24T03:27:49.669Z,2.53
2018-09-24T03:42:53.629Z,1.20
2018-09-24T03:57:57.639Z,2.00
2018-09-24T04:13:06.799Z,2.37
2018-09-24T04:28:16.073Z,1.73
2018-09-24T04:43:25.331Z,1.30
2018-09-24T04:58:34.527Z,2.10
2018-09-24T05:13:43.654Z,2.70
2018-09-24T05:28:52.922Z,2.10
2018-09-24T05:44:02.074Z,1.90
2018-09-24T05:59:11.298Z,1.80
2018-09-24T06:14:20.255Z,1.70
2018-09-24T06:29:29.478Z,0.80
2018-09-24T06:44:38.601Z,1.77
2018-09-24T06:59:47.808Z,0.60
2018-09-24T07:14:56.939Z,1.00
2018-09-24T07:30:06.035Z,0.93
2018-09-24T07:45:15.225Z,1.40
2018-09-24T08:00:24.320Z,0.80
2018-09-24T08:15:33.423Z,0.93
2018-09-24T08:30:42.647Z,1.17
2018-09-24T08:45:51.769Z,0.60
2018-09-24T09:01:00.894Z,1.10
2018-09-24T09:16:10.049Z,0.40
2018-09-24T09:31:19.174Z,0.67
2018-09-24T09:46:28.283Z,0.70
2018-09-24T10:01:37.501Z,0.63
2018-09-24T10:16:46.750Z,0.60
2018-09-24T10:31:56.023Z,0.23
2018-09-24T10:47:05.197Z,0.47
2018-09-24T11:02:14.322Z,0.80
2018-09-24T11:17:23.810Z,0.37
2018-09-24T11:32:32.970Z,0.40
2018-09-24T11:47:42.055Z,0.47
2018-09-24T12:02:51.373Z,0.30
2018-09-24T12:18:00.520Z,0.70
2018-09-24T12:33:09.862Z,0.28
2018-09-24T12:48:19.095Z,0.50
2018-09-24T13:03:35.086Z,0.33
2018-09-24T13:18:45.173Z,0.40
2018-09-24T13:33:54.511Z,0.30
2018-09-24T13:49:03.814Z,0.20
2018-09-24T14:04:13.087Z,0.37
2018-09-24T14:19:22.311Z,0.20
2018-09-24T14:34:31.426Z,0.67
2018-09-24T14:49:40.529Z,0.53
2018-09-24T15:04:49.706Z,0.83
2018-09-24T15:20:04.531Z,0.40
2018-09-24T15:35:13.747Z,0.10
2018-09-24T15:50:22.857Z,0.28
2018-09-24T16:05:32.035Z,0.30
2018-09-24T16:20:41.338Z,0.20
2018-09-24T16:35:50.638Z,0.20
2018-09-24T16:50:59.885Z,0.20
2018-09-24T17:06:09.209Z,0.00
2018-09-24T17:21:18.458Z,0.35
2018-09-24T17:36:27.763Z,0.10
2018-09-24T17:51:36.986Z,0.73
2018-09-24T18:06:46.183Z,0.30
2018-09-24T18:21:55.481Z,0.40
2018-09-24T18:37:04.810Z,0.10
2018-09-24T18:52:13.910Z,0.40
2018-09-24T19:07:23.265Z,0.27
2018-09-24T19:22:32.532Z,0.08
2018-09-24T19:37:41.666Z,0.50
2018-09-24T19:52:50.828Z,0.40
2018-09-24T20:08:00.038Z,0.30
2018-09-24T20:23:09.188Z,0.30
2018-09-24T20:38:19.029Z,0.68
2018-09-24T20:53:28.342Z,0.50
2018-09-24T21:08:37.470Z,0.60
2018-09-24T21:23:46.716Z,1.03
2018-09-24T21:38:56.014Z,0.50
2018-09-24T21:54:05.285Z,0.83
2018-09-24T22:09:14.682Z,0.40
2018-09-24T22:24:23.656Z,0.40
2018-09-24T22:39:32.801Z,0.20
2018-09-24T22:54:41.939Z,0.33
2018-09-24T23:09:51.158Z,0.30
2018-09-24T23:25:00.318Z,0.60
2018-09-24T23:40:09.695Z,0.42
2018-09-24T23:55:18.806Z,0.50
